createdAt,value
2022-11-01T00:01:06.155Z,46.60
2022-11-01T00:03:32.775Z,43.83
2022-11-01T00:05:59.397Z,46.25
2022-11-01T00:08:25.809Z,42.47
2022-11-01T00:10:52.194Z,45.95
2022-11-01T00:13:18.601Z,46.42
2022-11-01T00:15:45.306Z,42.83
2022-11-01T00:18:11.856Z,44.17
2022-11-01T00:20:38.188Z,44.80
2022-11-01T00:23:04.923Z,45.50
2022-11-01T00:25:31.598Z,46.53
2022-11-01T00:27:58.011Z,44.53
2022-11-01T00:30:24.469Z,45.80
2022-11-01T00:32:50.886Z,46.13
2022-11-01T00:35:17.279Z,46.05
2022-11-01T00:37:43.797Z,44.92
2022-11-01T00:40:10.775Z,47.50
2022-11-01T00:42:37.185Z,50.58
2022-11-01T00:45:05.062Z,46.72
2022-11-01T00:47:31.433Z,47.65
2022-11-01T00:49:57.912Z,47.95
2022-11-01T00:52:24.310Z,46.60
2022-11-01T00:54:50.739Z,46.75
2022-11-01T00:57:17.225Z,48.15
2022-11-01T00:59:43.721Z,47.65
2022-11-01T01:02:10.291Z,48.47
2022-11-01T01:04:42.306Z,45.63
2022-11-01T01:07:12.249Z,46.75
2022-11-01T01:09:38.716Z,48.13
2022-11-01T01:12:06.007Z,48.88
2022-11-01T01:14:32.768Z,48.50
2022-11-01T01:16:59.262Z,46.15
2022-11-01T01:19:25.730Z,46.45
2022-11-01T01:21:52.130Z,47.08
2022-11-01T01:24:18.507Z,45.10
2022-11-01T01:26:44.877Z,43.33
2022-11-01T01:29:14.088Z,44.67
2022-11-01T01:31:42.247Z,43.10
2022-11-01T01:34:08.866Z,44.45
2022-11-01T01:36:35.271Z,44.05
2022-11-01T01:39:01.636Z,43.47
2022-11-01T01:41:46.628Z,44.53
2022-11-01T01:44:50.712Z,43.85
2022-11-01T01:47:22.993Z,44.40
2022-11-01T01:52:31.630Z,42.42
2022-11-01T01:55:01.536Z,42.88
2022-11-01T01:57:28.314Z,44.92
2022-11-01T01:59:54.745Z,44.78
2022-11-01T02:02:21.779Z,44.63
2022-11-01T02:04:54.048Z,45.47
2022-11-01T02:07:20.423Z,49.40
2022-11-01T02:09:47.610Z,48.40
2022-11-01T02:12:14.774Z,50.15
2022-11-01T02:14:45.447Z,45.75
2022-11-01T02:17:43.290Z,48.78
2022-11-01T02:20:34.349Z,50.35
2022-11-01T02:23:12.560Z,51.15
2022-11-01T02:26:18.069Z,50.90
2022-11-01T02:29:07.829Z,51.25
2022-11-01T02:31:52.591Z,52.35
2022-11-01T02:34:23.236Z,52.80
2022-11-01T02:37:02.399Z,53.67
2022-11-01T02:39:35.773Z,53.80
2022-11-01T02:42:07.826Z,52.03
2022-11-01T02:44:39.943Z,59.40
2022-11-01T02:47:07.486Z,55.95
2022-11-01T02:49:42.462Z,54.00
2022-11-01T02:52:13.392Z,53.40
2022-11-01T02:54:43.611Z,55.63
2022-11-01T02:59:49.008Z,54.03
2022-11-01T03:02:39.452Z,55.20
2022-11-01T03:05:10.534Z,58.53
2022-11-01T03:07:38.605Z,58.28
2022-11-01T03:10:05.522Z,58.83
2022-11-01T03:12:40.742Z,58.72
2022-11-01T03:15:21.085Z,61.97
2022-11-01T03:17:53.505Z,60.92
2022-11-01T03:20:19.862Z,61.25
2022-11-01T03:22:48.609Z,62.72
2022-11-01T03:25:39.608Z,59.65
2022-11-01T03:28:12.366Z,59.13
2022-11-01T03:30:44.313Z,56.92
2022-11-01T03:33:13.737Z,61.92
2022-11-01T03:35:44.860Z,61.53
2022-11-01T03:38:15.749Z,60.88
2022-11-01T03:40:47.941Z,62.45
2022-11-01T03:43:17.094Z,59.55
2022-11-01T03:45:43.894Z,61.80
2022-11-01T03:48:12.595Z,62.85
2022-11-01T03:50:40.269Z,61.85
2022-11-01T03:53:06.617Z,61.17
2022-11-01T03:55:32.996Z,60.78
2022-11-01T03:58:00.300Z,61.42
2022-11-01T04:00:29.917Z,59.83
2022-11-01T04:02:57.890Z,59.47
2022-11-01T04:05:26.884Z,62.20
2022-11-01T04:07:53.450Z,58.35
2022-11-01T04:10:22.127Z,60.72
2022-11-01T04:12:50.233Z,65.43
2022-11-01T04:15:36.746Z,62.10
2022-11-01T04:18:29.700Z,61.78
2022-11-01T04:20:59.090Z,58.92
2022-11-01T04:23:31.328Z,61.63
2022-11-01T04:25:57.838Z,59.35
2022-11-01T04:28:24.344Z,60.33
2022-11-01T04:30:50.769Z,60.97
2022-11-01T04:33:17.332Z,58.72
2022-11-01T04:35:43.906Z,60.33
2022-11-01T04:38:14.023Z,59.28
2022-11-01T04:40:41.665Z,59.80
2022-11-01T04:43:08.348Z,60.40
2022-11-01T04:45:34.802Z,64.00
2022-11-01T04:48:03.857Z,60.20
2022-11-01T04:50:30.801Z,60.00
2022-11-01T04:52:59.536Z,59.28
2022-11-01T04:55:27.783Z,59.85
2022-11-01T04:57:54.592Z,60.00
2022-11-01T05:00:22.928Z,60.97
2022-11-01T05:02:49.923Z,59.88
2022-11-01T05:05:16.937Z,60.75
2022-11-01T05:07:43.338Z,62.47
2022-11-01T05:10:11.700Z,64.00
2022-11-01T05:12:38.065Z,61.17
2022-11-01T05:15:05.326Z,61.10
2022-11-01T05:17:31.689Z,61.40
2022-11-01T05:19:58.107Z,62.00
2022-11-01T05:22:24.464Z,62.70
2022-11-01T05:24:50.866Z,60.08
2022-11-01T05:27:17.205Z,59.03
2022-11-01T05:29:43.561Z,62.53
2022-11-01T05:32:09.905Z,59.50
2022-11-01T05:34:36.362Z,57.67
2022-11-01T05:37:02.742Z,60.38
2022-11-01T05:39:29.160Z,59.33
2022-11-01T05:42:00.072Z,58.28
2022-11-01T05:44:29.575Z,59.17
2022-11-01T05:46:55.938Z,57.97
2022-11-01T05:49:25.498Z,60.30
2022-11-01T05:51:51.875Z,59.15
2022-11-01T05:54:18.255Z,55.58
2022-11-01T05:56:44.609Z,56.40
2022-11-01T05:59:11.003Z,54.97
2022-11-01T06:01:37.588Z,56.25
2022-11-01T06:04:05.451Z,57.00
2022-11-01T06:06:32.703Z,55.83
2022-11-01T06:08:59.863Z,53.95
2022-11-01T06:11:27.594Z,52.47
2022-11-01T06:13:58.404Z,52.17
2022-11-01T06:16:26.301Z,55.10
2022-11-01T06:18:53.734Z,53.20
2022-11-01T06:21:30.146Z,52.67
2022-11-01T06:23:57.019Z,52.95
2022-11-01T06:26:23.468Z,55.13
2022-11-01T06:28:50.023Z,53.33
2022-11-01T06:31:16.449Z,55.97
2022-11-01T06:33:43.134Z,52.38
2022-11-01T06:36:09.581Z,53.38
2022-11-01T06:38:36.199Z,54.58
2022-11-01T06:41:02.970Z,53.90
2022-11-01T06:43:29.357Z,48.88
2022-11-01T06:45:58.719Z,51.88
2022-11-01T06:48:25.080Z,52.07
2022-11-01T06:50:53.715Z,51.85
2022-11-01T06:53:20.345Z,48.25
2022-11-01T06:55:46.695Z,49.45
2022-11-01T06:58:13.079Z,47.22
2022-11-01T07:00:39.483Z,49.33
2022-11-01T07:03:08.067Z,46.95
2022-11-01T07:05:37.383Z,47.70
2022-11-01T07:08:07.414Z,50.00
2022-11-01T07:10:34.027Z,49.00
2022-11-01T07:13:05.387Z,49.53
2022-11-01T07:15:32.335Z,48.95
2022-11-01T07:18:01.584Z,46.88
2022-11-01T07:20:30.439Z,46.83
2022-11-01T07:22:58.322Z,45.08
2022-11-01T07:25:24.977Z,45.95
2022-11-01T07:27:51.341Z,47.00
2022-11-01T07:30:17.851Z,46.75
2022-11-01T07:32:44.346Z,44.88
2022-11-01T07:35:13.018Z,44.72
2022-11-01T07:37:39.546Z,44.30
2022-11-01T07:40:06.567Z,42.53
2022-11-01T07:42:33.000Z,43.10
2022-11-01T07:44:59.339Z,42.63
2022-11-01T07:47:25.775Z,41.00
2022-11-01T07:49:52.878Z,40.78
2022-11-01T07:52:19.330Z,40.72
2022-11-01T07:54:45.677Z,40.15
2022-11-01T07:57:12.010Z,40.92
2022-11-01T07:59:38.373Z,40.67
2022-11-01T08:02:07.882Z,38.58
2022-11-01T08:04:35.095Z,37.45
2022-11-01T08:07:01.609Z,36.80
2022-11-01T08:09:28.089Z,37.67
2022-11-01T08:11:54.421Z,36.25
2022-11-01T08:14:21.006Z,35.45
2022-11-01T08:16:57.626Z,32.08
2022-11-01T08:19:24.057Z,31.02
2022-11-01T08:21:51.028Z,33.00
2022-11-01T08:24:17.915Z,30.38
2022-11-01T08:26:44.367Z,29.58
2022-11-01T08:29:10.870Z,29.95
2022-11-01T08:31:45.284Z,29.92
2022-11-01T08:34:14.544Z,28.98
2022-11-01T08:36:42.427Z,26.25
2022-11-01T08:41:37.418Z,21.60
2022-11-01T08:44:04.120Z,21.80
2022-11-01T08:46:30.493Z,20.80
2022-11-01T08:48:59.154Z,19.42
2022-11-01T08:51:26.182Z,18.85
2022-11-01T08:53:56.808Z,17.88
2022-11-01T08:56:24.767Z,18.45
2022-11-01T08:58:52.772Z,18.70
2022-11-01T09:01:20.075Z,18.23
2022-11-01T09:03:47.082Z,17.58
2022-11-01T09:06:13.815Z,18.08
2022-11-01T09:08:40.297Z,17.33
2022-11-01T09:11:06.785Z,17.73
2022-11-01T09:13:34.472Z,16.70
2022-11-01T09:16:06.108Z,16.05
2022-11-01T09:18:32.964Z,16.63
2022-11-01T09:21:00.028Z,16.15
2022-11-01T09:23:26.974Z,16.48
2022-11-01T09:25:53.832Z,16.20
2022-11-01T09:28:20.287Z,16.38
2022-11-01T09:30:50.183Z,16.00
2022-11-01T09:33:23.723Z,15.05
2022-11-01T09:35:56.712Z,16.05
2022-11-01T09:38:25.173Z,15.57
2022-11-01T09:41:05.564Z,15.20
2022-11-01T09:43:36.995Z,14.85
2022-11-01T09:46:05.800Z,16.42
2022-11-01T09:48:34.271Z,15.70
2022-11-01T09:51:10.770Z,15.48
2022-11-01T09:53:37.175Z,14.82
2022-11-01T09:56:14.085Z,16.15
2022-11-01T09:59:02.137Z,15.93
2022-11-01T10:01:46.711Z,16.23
2022-11-01T10:04:34.150Z,15.65
2022-11-01T10:07:32.539Z,16.27
2022-11-01T10:10:18.814Z,15.73
2022-11-01T10:12:45.226Z,15.98
2022-11-01T10:15:14.285Z,15.88
2022-11-01T10:17:52.967Z,15.98
2022-11-01T10:20:29.347Z,15.45
2022-11-01T10:22:57.545Z,15.52
2022-11-01T10:25:28.512Z,14.48
2022-11-01T10:28:19.987Z,13.93
2022-11-01T10:30:52.605Z,14.23
2022-11-01T10:33:27.618Z,14.18
2022-11-01T10:36:10.137Z,13.48
2022-11-01T10:39:29.883Z,12.85
2022-11-01T10:41:37.126Z,12.43
2022-11-01T10:44:27.925Z,14.00
2022-11-01T10:46:55.851Z,13.30
2022-11-01T10:49:40.538Z,12.35
2022-11-01T10:52:20.375Z,13.70
2022-11-01T10:54:47.994Z,13.00
2022-11-01T10:57:26.686Z,12.70
2022-11-01T10:59:56.861Z,12.60
2022-11-01T11:02:43.144Z,11.75
2022-11-01T11:05:14.029Z,11.77
2022-11-01T11:07:41.539Z,11.70
2022-11-01T11:10:26.714Z,10.60
2022-11-01T11:13:02.311Z,9.50
2022-11-01T11:16:01.581Z,9.77
2022-11-01T11:18:42.125Z,10.43
2022-11-01T11:21:11.907Z,9.95
2022-11-01T11:23:44.114Z,10.00
2022-11-01T11:26:17.572Z,9.80
2022-11-01T11:28:48.939Z,10.05
2022-11-01T11:31:22.997Z,9.57
2022-11-01T11:33:53.743Z,10.20
2022-11-01T11:36:29.236Z,9.70
2022-11-01T11:38:55.887Z,10.30
2022-11-01T11:41:41.840Z,9.45
2022-11-01T11:44:45.906Z,9.70
2022-11-01T11:47:28.192Z,9.90
2022-11-01T11:49:57.987Z,9.95
2022-11-01T11:52:37.945Z,9.88
2022-11-01T11:55:06.132Z,9.90
2022-11-01T11:57:33.355Z,9.57
2022-11-01T12:00:03.011Z,10.30
2022-11-01T12:02:37.358Z,9.95
2022-11-01T12:05:09.485Z,10.57
2022-11-01T12:07:45.254Z,10.77
2022-11-01T12:10:28.676Z,10.52
2022-11-01T12:12:56.772Z,10.73
2022-11-01T12:15:38.544Z,10.30
2022-11-01T12:18:15.881Z,10.93
2022-11-01T12:20:43.853Z,10.98
2022-11-01T12:23:24.137Z,10.95
2022-11-01T12:25:51.647Z,10.90
2022-11-01T12:28:29.568Z,10.75
2022-11-01T12:31:03.084Z,11.10
2022-11-01T12:33:36.108Z,11.20
2022-11-01T12:36:02.966Z,11.55
2022-11-01T12:38:32.423Z,11.15
2022-11-01T12:41:13.748Z,11.15
2022-11-01T12:43:53.159Z,11.52
2022-11-01T12:46:28.798Z,11.02
2022-11-01T12:49:03.215Z,10.77
2022-11-01T12:51:37.824Z,11.30
2022-11-01T12:54:27.242Z,11.15
2022-11-01T12:56:55.384Z,11.13
2022-11-01T12:59:29.142Z,12.70
2022-11-01T13:02:09.626Z,11.52
2022-11-01T13:04:42.057Z,11.70
2022-11-01T13:07:23.055Z,12.02
2022-11-01T13:10:07.932Z,10.82
2022-11-01T13:12:48.887Z,11.82
2022-11-01T13:15:25.607Z,11.23
2022-11-01T13:18:23.819Z,10.95
2022-11-01T13:21:08.373Z,12.00
2022-11-01T13:23:53.178Z,12.52
2022-11-01T13:26:29.993Z,11.30
2022-11-01T13:29:17.371Z,10.88
2022-11-01T13:32:04.108Z,11.00
2022-11-01T13:34:52.258Z,11.38
2022-11-01T13:37:32.797Z,11.23
2022-11-01T13:40:21.798Z,11.40
2022-11-01T13:42:59.737Z,11.68
2022-11-01T13:45:29.369Z,11.63
2022-11-01T13:48:11.300Z,11.57
2022-11-01T13:51:15.340Z,12.40
2022-11-01T13:53:52.953Z,11.07
2022-11-01T13:56:32.068Z,11.07
2022-11-01T13:58:58.814Z,11.38
2022-11-01T14:01:29.942Z,10.63
2022-11-01T14:04:14.810Z,10.70
2022-11-01T14:06:43.629Z,11.40
2022-11-01T14:09:28.084Z,11.30
2022-11-01T14:11:57.336Z,11.60
2022-11-01T14:14:29.471Z,11.53
2022-11-01T14:17:21.294Z,10.63
2022-11-01T14:19:49.909Z,11.05
2022-11-01T14:22:22.513Z,11.05
2022-11-01T14:25:00.804Z,10.75
2022-11-01T14:27:35.963Z,10.80
2022-11-01T14:30:14.490Z,10.95
2022-11-01T14:32:43.702Z,11.55
2022-11-01T14:35:13.222Z,11.17
2022-11-01T14:37:44.277Z,11.57
2022-11-01T14:40:19.658Z,11.55
2022-11-01T14:42:48.654Z,11.13
2022-11-01T14:45:39.579Z,11.27
2022-11-01T14:48:16.452Z,11.95
2022-11-01T14:50:52.367Z,12.38
2022-11-01T14:53:19.818Z,12.25
2022-11-01T14:55:46.396Z,12.82
2022-11-01T14:58:18.670Z,12.00
2022-11-01T15:00:46.773Z,12.05
2022-11-01T15:03:14.122Z,11.88
2022-11-01T15:05:58.466Z,12.40
2022-11-01T15:08:40.402Z,11.82
2022-11-01T15:11:07.691Z,11.52
2022-11-01T15:13:39.062Z,11.98
2022-11-01T15:16:19.707Z,11.73
2022-11-01T15:18:53.790Z,11.70
2022-11-01T15:21:25.743Z,11.68
2022-11-01T15:24:00.250Z,11.70
2022-11-01T15:26:32.770Z,11.40
2022-11-01T15:29:04.992Z,11.70
2022-11-01T15:31:34.217Z,11.20
2022-11-01T15:34:19.288Z,11.93
2022-11-01T15:36:45.873Z,11.82
2022-11-01T15:39:19.270Z,11.35
2022-11-01T15:41:46.642Z,11.13
2022-11-01T15:44:32.300Z,11.85
2022-11-01T15:47:01.117Z,11.68
2022-11-01T15:49:40.560Z,11.10
2022-11-01T15:52:21.181Z,10.43
2022-11-01T15:54:54.838Z,10.95
2022-11-01T15:57:37.714Z,11.27
2022-11-01T16:00:07.275Z,12.20
2022-11-01T16:02:40.034Z,12.30
2022-11-01T16:05:08.959Z,11.63
2022-11-01T16:07:35.621Z,11.20
2022-11-01T16:10:05.081Z,10.70
2022-11-01T16:12:35.930Z,11.05
2022-11-01T16:15:19.799Z,11.43
2022-11-01T16:17:46.820Z,11.77
2022-11-01T16:20:36.609Z,10.50
2022-11-01T16:23:14.256Z,11.98
2022-11-01T16:25:40.954Z,10.60
2022-11-01T16:28:10.328Z,11.10
2022-11-01T16:30:51.069Z,11.10
2022-11-01T16:33:27.805Z,11.73
2022-11-01T16:36:03.240Z,11.30
2022-11-01T16:38:32.660Z,11.13
2022-11-01T16:41:01.864Z,11.70
2022-11-01T16:43:31.261Z,12.63
2022-11-01T16:45:58.752Z,13.10
2022-11-01T16:48:34.580Z,11.57
2022-11-01T16:51:02.016Z,11.68
2022-11-01T16:53:30.350Z,11.43
2022-11-01T16:56:30.611Z,12.68
2022-11-01T16:58:57.561Z,11.68
2022-11-01T17:01:34.361Z,12.43
2022-11-01T17:04:02.478Z,12.35
2022-11-01T17:06:28.945Z,11.57
2022-11-01T17:08:55.446Z,11.25
2022-11-01T17:11:22.037Z,12.43
2022-11-01T17:13:48.532Z,11.05
2022-11-01T17:16:27.305Z,11.90
2022-11-01T17:18:57.482Z,11.15
2022-11-01T17:23:52.657Z,17.98
2022-11-01T17:26:19.651Z,42.75
2022-11-01T17:28:51.340Z,209.90
2022-11-01T17:31:18.880Z,37.10
2022-11-01T17:33:45.489Z,17.90
2022-11-01T17:36:16.317Z,13.30
2022-11-01T17:38:44.793Z,15.07
2022-11-01T17:41:19.610Z,12.30
2022-11-01T17:43:45.970Z,14.10
2022-11-01T17:46:20.178Z,12.95
2022-11-01T17:48:46.624Z,12.05
2022-11-01T17:51:13.144Z,12.77
2022-11-01T17:53:41.985Z,12.63
2022-11-01T17:56:08.660Z,11.23
2022-11-01T17:58:35.592Z,11.35
2022-11-01T18:01:02.746Z,10.77
2022-11-01T18:03:29.196Z,11.93
2022-11-01T18:05:58.095Z,11.38
2022-11-01T18:08:26.932Z,11.70
2022-11-01T18:11:26.016Z,11.73
2022-11-01T18:14:26.248Z,11.55
2022-11-01T18:19:58.341Z,10.90
2022-11-01T18:22:55.857Z,11.50
2022-11-01T18:25:37.357Z,10.82
2022-11-01T18:28:15.770Z,11.27
2022-11-01T18:30:47.394Z,10.70
2022-11-01T18:33:37.605Z,11.13
2022-11-01T18:36:58.246Z,11.27
2022-11-01T18:39:30.785Z,10.63
2022-11-01T18:42:00.558Z,11.95
2022-11-01T18:44:27.501Z,11.85
2022-11-01T18:47:06.025Z,11.00
2022-11-01T18:49:32.434Z,10.98
2022-11-01T18:51:59.057Z,10.88
2022-11-01T18:54:30.194Z,11.00
2022-11-01T18:56:58.548Z,11.15
2022-11-01T18:59:32.855Z,11.50
2022-11-01T19:02:03.370Z,11.15
2022-11-01T19:04:31.533Z,10.82
2022-11-01T19:07:10.046Z,10.98
2022-11-01T19:09:38.575Z,11.63
2022-11-01T19:12:25.512Z,11.40
2022-11-01T19:15:16.230Z,11.07
2022-11-01T19:17:43.599Z,11.15
2022-11-01T19:20:30.782Z,11.25
2022-11-01T19:23:03.209Z,11.38
2022-11-01T19:25:35.549Z,11.27
2022-11-01T19:28:11.118Z,11.52
2022-11-01T19:30:38.483Z,11.80
2022-11-01T19:33:18.382Z,11.40
2022-11-01T19:35:44.892Z,10.98
2022-11-01T19:38:15.800Z,11.57
2022-11-01T19:40:42.446Z,10.85
2022-11-01T19:43:13.615Z,10.48
2022-11-01T19:46:00.440Z,11.60
2022-11-01T19:48:29.926Z,10.82
2022-11-01T19:50:56.331Z,10.70
2022-11-01T19:53:32.246Z,10.57
2022-11-01T19:56:07.704Z,10.95
2022-11-01T19:58:45.697Z,11.75
2022-11-01T20:01:21.272Z,10.18
2022-11-01T20:03:55.353Z,10.15
2022-11-01T20:06:30.991Z,10.88
2022-11-01T20:09:13.236Z,10.35
2022-11-01T20:11:39.686Z,11.00
2022-11-01T20:14:06.121Z,10.60
2022-11-01T20:16:32.496Z,10.52
2022-11-01T20:18:59.621Z,10.52
2022-11-01T20:21:26.041Z,10.80
2022-11-01T20:23:52.703Z,11.50
2022-11-01T20:26:19.146Z,10.95
2022-11-01T20:28:45.635Z,10.82
2022-11-01T20:31:12.299Z,10.85
2022-11-01T20:33:38.645Z,11.75
2022-11-01T20:36:10.786Z,11.32
2022-11-01T20:38:38.224Z,10.75
2022-11-01T20:41:04.756Z,11.48
2022-11-01T20:43:31.190Z,10.45
2022-11-01T20:45:57.772Z,10.95
2022-11-01T20:48:25.181Z,11.07
2022-11-01T20:50:52.285Z,10.90
2022-11-01T20:53:18.766Z,10.40
2022-11-01T20:55:45.532Z,10.43
2022-11-01T20:58:14.068Z,10.95
2022-11-01T21:00:40.433Z,10.50
2022-11-01T21:03:16.252Z,9.88
2022-11-01T21:05:44.585Z,10.25
2022-11-01T21:08:16.309Z,9.95
2022-11-01T21:10:43.346Z,10.50
2022-11-01T21:13:27.778Z,10.52
2022-11-01T21:15:56.981Z,11.07
2022-11-01T21:18:39.251Z,11.80
2022-11-01T21:21:27.075Z,10.93
2022-11-01T21:23:53.985Z,10.80
2022-11-01T21:26:28.526Z,11.05
2022-11-01T21:29:01.393Z,11.57
2022-11-01T21:31:33.097Z,10.38
2022-11-01T21:34:14.501Z,9.95
2022-11-01T21:36:42.743Z,9.27
2022-11-01T21:39:17.509Z,9.70
2022-11-01T21:41:46.173Z,10.13
2022-11-01T21:44:18.483Z,9.73
2022-11-01T21:46:54.173Z,9.50
2022-11-01T21:49:27.933Z,10.10
2022-11-01T21:51:56.440Z,9.48
2022-11-01T21:54:23.095Z,9.45
2022-11-01T21:56:49.678Z,9.88
2022-11-01T21:59:16.992Z,10.25
2022-11-01T22:01:45.270Z,10.38
2022-11-01T22:04:15.613Z,9.90
2022-11-01T22:09:09.453Z,10.60
2022-11-01T22:11:36.752Z,9.52
2022-11-01T22:14:03.936Z,10.10
2022-11-01T22:16:30.328Z,9.35
2022-11-01T22:18:59.324Z,9.82
2022-11-01T22:21:26.017Z,10.80
2022-11-01T22:23:52.451Z,10.27
2022-11-01T22:26:18.958Z,10.77
2022-11-01T22:28:45.388Z,10.07
2022-11-01T22:31:15.314Z,9.95
2022-11-01T22:33:42.329Z,10.30
2022-11-01T22:36:14.102Z,11.15
2022-11-01T22:38:43.158Z,10.10
2022-11-01T22:41:22.461Z,9.55
2022-11-01T22:43:50.133Z,10.50
2022-11-01T22:46:28.479Z,9.88
2022-11-01T22:49:09.710Z,10.85
2022-11-01T22:51:42.881Z,9.95
2022-11-01T22:54:25.338Z,10.55
2022-11-01T22:57:01.188Z,9.65
2022-11-01T22:59:34.027Z,10.07
2022-11-01T23:02:21.944Z,10.93
2022-11-01T23:04:49.322Z,9.68
2022-11-01T23:07:39.659Z,10.30
2022-11-01T23:13:04.476Z,9.60
2022-11-01T23:15:33.586Z,10.18
2022-11-01T23:18:15.178Z,10.07
2022-11-01T23:20:41.910Z,9.93
2022-11-01T23:23:18.639Z,10.48
2022-11-01T23:25:45.327Z,9.48
2022-11-01T23:28:13.022Z,9.85
2022-11-01T23:30:44.522Z,9.88
2022-11-01T23:33:13.675Z,10.27
2022-11-01T23:35:42.231Z,9.75
2022-11-01T23:38:19.889Z,10.00
2022-11-01T23:40:46.784Z,10.30
2022-11-01T23:43:37.384Z,10.38
2022-11-01T23:46:04.723Z,10.18
2022-11-01T23:48:31.142Z,10.10
2022-11-01T23:50:58.288Z,10.82
2022-11-01T23:53:38.105Z,9.95
2022-11-01T23:56:07.908Z,9.27
2022-11-01T23:58:35.919Z,10.48
